createdAt,value
2023-01-09T00:00:46.428Z,3.37
2023-01-09T00:03:13.633Z,2.47
2023-01-09T00:05:40.192Z,4.30
2023-01-09T00:08:07.879Z,6.13
2023-01-09T00:10:34.453Z,2.53
2023-01-09T00:13:00.937Z,2.73
2023-01-09T00:15:27.460Z,2.43
2023-01-09T00:17:56.688Z,1.90
2023-01-09T00:20:23.860Z,2.87
2023-01-09T00:22:50.385Z,2.57
2023-01-09T00:25:16.994Z,1.80
2023-01-09T00:27:43.508Z,2.10
2023-01-09T00:30:11.461Z,2.13
2023-01-09T00:32:38.023Z,3.03
2023-01-09T00:35:05.308Z,3.53
2023-01-09T00:37:32.448Z,2.67
2023-01-09T00:39:59.001Z,1.80
2023-01-09T00:42:30.566Z,2.10
2023-01-09T00:45:01.303Z,3.23
2023-01-09T00:47:31.935Z,2.00
2023-01-09T00:50:00.492Z,1.83
2023-01-09T00:52:29.310Z,2.80
2023-01-09T00:54:57.921Z,1.40
2023-01-09T00:57:24.518Z,1.50
2023-01-09T00:59:52.175Z,3.53
2023-01-09T01:02:18.992Z,2.93
2023-01-09T01:05:03.695Z,3.23
2023-01-09T01:07:38.900Z,5.43
2023-01-09T01:10:09.535Z,5.60
2023-01-09T01:12:36.320Z,3.77
2023-01-09T01:15:03.892Z,3.43
2023-01-09T01:17:30.419Z,2.33
2023-01-09T01:19:56.936Z,1.83
2023-01-09T01:22:23.426Z,3.30
2023-01-09T01:24:49.959Z,1.40
2023-01-09T01:27:17.141Z,3.47
2023-01-09T01:29:43.757Z,2.50
2023-01-09T01:32:11.163Z,3.13
2023-01-09T01:34:37.735Z,2.67
2023-01-09T01:37:04.331Z,2.17
2023-01-09T01:39:30.869Z,1.27
2023-01-09T01:41:59.775Z,1.57
2023-01-09T01:44:57.081Z,1.90
2023-01-09T01:47:28.278Z,2.57
2023-01-09T01:49:58.835Z,1.83
2023-01-09T01:52:25.793Z,2.03
2023-01-09T01:54:52.889Z,1.67
2023-01-09T01:57:19.791Z,2.63
2023-01-09T01:59:49.715Z,1.53
2023-01-09T02:02:19.468Z,1.73
2023-01-09T02:04:48.152Z,1.43
2023-01-09T02:07:14.693Z,4.27
2023-01-09T02:09:43.686Z,2.37
2023-01-09T02:12:16.064Z,2.07
2023-01-09T02:14:42.821Z,2.80
2023-01-09T02:17:20.335Z,2.57
2023-01-09T02:20:21.347Z,2.10
2023-01-09T02:23:00.875Z,2.37
2023-01-09T02:25:54.615Z,3.33
2023-01-09T02:28:51.857Z,3.00
2023-01-09T02:31:25.331Z,1.77
2023-01-09T02:34:01.718Z,1.63
2023-01-09T02:36:35.890Z,3.50
2023-01-09T02:39:15.370Z,1.00
2023-01-09T02:41:48.163Z,3.27
2023-01-09T02:44:21.470Z,3.67
2023-01-09T02:46:59.289Z,1.33
2023-01-09T02:49:26.732Z,2.87
2023-01-09T02:52:00.559Z,2.87
2023-01-09T02:54:42.294Z,2.23
2023-01-09T02:57:24.735Z,4.33
2023-01-09T03:00:02.498Z,1.67
2023-01-09T03:02:41.254Z,2.00
2023-01-09T03:05:15.165Z,1.67
2023-01-09T03:07:47.440Z,3.47
2023-01-09T03:10:20.200Z,1.77
2023-01-09T03:12:50.689Z,1.63
2023-01-09T03:15:20.339Z,3.10
2023-01-09T03:17:50.065Z,2.80
2023-01-09T03:20:20.802Z,2.13
2023-01-09T03:22:53.902Z,1.50
2023-01-09T03:25:20.458Z,2.20
2023-01-09T03:27:47.049Z,1.67
2023-01-09T03:30:14.076Z,2.10
2023-01-09T03:32:40.630Z,1.47
2023-01-09T03:35:08.635Z,2.27
2023-01-09T03:37:35.154Z,2.37
2023-01-09T03:40:01.737Z,2.87
2023-01-09T03:42:28.355Z,2.87
2023-01-09T03:44:54.872Z,4.30
2023-01-09T03:47:21.378Z,1.90
2023-01-09T03:49:47.865Z,2.80
2023-01-09T03:52:14.988Z,1.97
2023-01-09T03:54:41.528Z,3.27
2023-01-09T03:57:08.027Z,3.27
2023-01-09T03:59:34.548Z,3.90
2023-01-09T04:02:03.619Z,3.73
2023-01-09T04:04:30.567Z,5.40
2023-01-09T04:06:57.217Z,4.77
2023-01-09T04:09:24.414Z,6.30
2023-01-09T04:11:50.937Z,3.13
2023-01-09T04:14:17.516Z,2.97
2023-01-09T04:16:44.097Z,2.47
2023-01-09T04:19:10.623Z,4.03
2023-01-09T04:21:37.098Z,4.70
2023-01-09T04:24:04.350Z,4.07
2023-01-09T04:26:31.491Z,2.13
2023-01-09T04:28:58.201Z,4.23
2023-01-09T04:31:24.784Z,4.67
2023-01-09T04:33:51.394Z,3.77
2023-01-09T04:36:17.971Z,3.00
2023-01-09T04:38:44.474Z,5.23
2023-01-09T04:41:31.453Z,2.77
2023-01-09T04:43:58.939Z,3.50
2023-01-09T04:46:25.787Z,2.93
2023-01-09T04:48:52.665Z,4.37
2023-01-09T04:51:19.528Z,4.03
2023-01-09T04:53:46.393Z,3.23
2023-01-09T04:56:13.253Z,4.37
2023-01-09T04:58:40.136Z,3.60
2023-01-09T05:01:07.719Z,4.33
2023-01-09T05:03:34.662Z,5.33
2023-01-09T05:06:01.534Z,4.67
2023-01-09T05:08:28.404Z,5.33
2023-01-09T05:10:55.271Z,3.90
2023-01-09T05:13:22.156Z,3.50
2023-01-09T05:15:49.020Z,3.40
2023-01-09T05:18:16.495Z,3.70
2023-01-09T05:20:43.339Z,3.50
2023-01-09T05:23:10.158Z,2.97
2023-01-09T05:25:37.008Z,3.17
2023-01-09T05:28:03.980Z,6.33
2023-01-09T05:30:30.821Z,2.93
2023-01-09T05:32:57.699Z,4.40
2023-01-09T05:35:25.242Z,5.73
2023-01-09T05:37:52.128Z,5.03
2023-01-09T05:40:19.109Z,5.93
2023-01-09T05:42:45.984Z,4.10
2023-01-09T05:45:33.127Z,5.93
2023-01-09T05:48:00.011Z,5.17
2023-01-09T05:50:27.804Z,3.50
2023-01-09T05:52:54.674Z,4.10
2023-01-09T05:55:21.538Z,2.77
2023-01-09T05:57:48.393Z,4.07
2023-01-09T06:00:18.099Z,2.80
2023-01-09T06:02:45.101Z,3.77
2023-01-09T06:05:12.073Z,7.30
2023-01-09T06:07:39.976Z,6.80
2023-01-09T06:10:07.717Z,2.33
2023-01-09T06:12:34.594Z,5.03
2023-01-09T06:15:01.427Z,3.17
2023-01-09T06:17:28.314Z,2.10
2023-01-09T06:19:55.151Z,5.13
2023-01-09T06:22:22.015Z,5.10
2023-01-09T06:24:49.534Z,3.80
2023-01-09T06:27:16.384Z,4.97
2023-01-09T06:29:43.261Z,5.77
2023-01-09T06:32:10.127Z,3.37
2023-01-09T06:34:36.986Z,2.40
2023-01-09T06:37:03.847Z,3.80
2023-01-09T06:39:30.705Z,4.87
2023-01-09T06:41:58.196Z,8.17
2023-01-09T06:44:25.065Z,3.13
2023-01-09T06:46:51.944Z,5.57
2023-01-09T06:49:22.634Z,5.67
2023-01-09T06:51:49.730Z,4.13
2023-01-09T06:54:16.654Z,5.07
2023-01-09T06:56:43.487Z,3.73
2023-01-09T06:59:11.102Z,5.23
2023-01-09T07:01:39.063Z,2.47
2023-01-09T07:04:06.031Z,5.10
2023-01-09T07:06:32.955Z,7.20
2023-01-09T07:08:59.828Z,7.00
2023-01-09T07:11:26.716Z,7.27
2023-01-09T07:13:53.603Z,2.27
2023-01-09T07:16:21.164Z,5.33
2023-01-09T07:18:48.066Z,6.00
2023-01-09T07:21:14.930Z,5.40
2023-01-09T07:23:41.766Z,4.00
2023-01-09T07:26:09.286Z,5.03
2023-01-09T07:28:36.142Z,8.50
2023-01-09T07:31:03.931Z,4.83
2023-01-09T07:33:31.458Z,5.97
2023-01-09T07:35:58.324Z,8.37
2023-01-09T07:38:25.211Z,5.47
2023-01-09T07:40:52.205Z,3.70
2023-01-09T07:43:19.119Z,8.20
2023-01-09T07:45:46.369Z,4.20
2023-01-09T07:48:13.237Z,6.33
2023-01-09T07:50:40.730Z,4.70
2023-01-09T07:53:07.601Z,7.50
2023-01-09T07:55:34.438Z,3.97
2023-01-09T07:58:01.360Z,6.50
2023-01-09T08:00:28.358Z,7.97
2023-01-09T08:02:55.346Z,4.43
2023-01-09T08:05:22.560Z,7.77
2023-01-09T08:07:50.625Z,6.07
2023-01-09T08:10:18.813Z,7.00
2023-01-09T08:12:45.725Z,4.97
2023-01-09T08:15:13.002Z,8.67
2023-01-09T08:17:41.237Z,7.67
2023-01-09T08:20:10.108Z,5.17
2023-01-09T08:22:36.965Z,9.23
2023-01-09T08:25:05.199Z,5.93
2023-01-09T08:27:32.026Z,6.30
2023-01-09T08:29:58.852Z,4.93
2023-01-09T08:32:25.709Z,7.70
2023-01-09T08:34:52.675Z,4.40
2023-01-09T08:37:19.516Z,6.47
2023-01-09T08:39:48.545Z,5.77
2023-01-09T08:42:45.951Z,5.27
2023-01-09T08:45:31.234Z,6.60
2023-01-09T08:47:58.161Z,5.30
2023-01-09T08:50:25.093Z,6.27
2023-01-09T08:52:51.960Z,4.43
2023-01-09T08:55:18.826Z,5.67
2023-01-09T08:57:49.500Z,6.37
2023-01-09T09:00:16.757Z,6.03
2023-01-09T09:02:43.702Z,4.30
2023-01-09T09:05:10.717Z,5.57
2023-01-09T09:07:37.568Z,4.77
2023-01-09T09:10:04.806Z,5.97
2023-01-09T09:12:31.655Z,4.83
2023-01-09T09:15:19.388Z,4.33
2023-01-09T09:17:49.087Z,4.50
2023-01-09T09:20:16.024Z,5.77
2023-01-09T09:22:42.948Z,5.33
2023-01-09T09:25:09.801Z,2.70
2023-01-09T09:27:37.033Z,5.07
2023-01-09T09:30:05.136Z,4.67
2023-01-09T09:32:32.137Z,3.87
2023-01-09T09:34:59.052Z,5.90
2023-01-09T09:37:25.904Z,3.33
2023-01-09T09:39:52.756Z,5.67
2023-01-09T09:42:46.426Z,2.67
2023-01-09T09:45:18.248Z,4.23
2023-01-09T09:47:49.727Z,3.97
2023-01-09T09:50:22.672Z,4.97
2023-01-09T09:52:51.882Z,3.40
2023-01-09T09:55:20.730Z,3.20
2023-01-09T09:57:48.265Z,5.50
2023-01-09T10:00:20.319Z,5.10
2023-01-09T10:02:59.308Z,3.40
2023-01-09T10:05:27.987Z,4.67
2023-01-09T10:07:58.093Z,4.20
2023-01-09T10:10:31.831Z,2.30
2023-01-09T10:13:21.907Z,5.73
2023-01-09T10:15:53.359Z,2.73
2023-01-09T10:18:25.993Z,3.90
2023-01-09T10:20:56.743Z,2.97
2023-01-09T10:23:29.321Z,8.03
2023-01-09T10:25:57.582Z,3.83
2023-01-09T10:28:49.295Z,3.20
2023-01-09T10:31:23.414Z,4.83
2023-01-09T10:33:54.864Z,2.90
2023-01-09T10:36:27.463Z,17.53
2023-01-09T10:38:56.438Z,3.23
2023-01-09T10:41:25.341Z,6.33
2023-01-09T10:43:56.954Z,7.10
2023-01-09T10:46:29.059Z,6.07
2023-01-09T10:48:59.019Z,5.60
2023-01-09T10:51:29.091Z,4.93
2023-01-09T10:53:56.218Z,5.20
2023-01-09T10:56:23.944Z,3.93
2023-01-09T10:58:51.466Z,4.70
2023-01-09T11:01:19.758Z,5.10
2023-01-09T11:03:47.285Z,2.37
2023-01-09T11:06:19.416Z,6.87
2023-01-09T11:08:48.896Z,5.37
2023-01-09T11:11:30.731Z,4.70
2023-01-09T11:14:04.151Z,3.23
2023-01-09T11:16:31.042Z,5.40
2023-01-09T11:19:00.649Z,3.13
2023-01-09T11:21:32.329Z,3.33
2023-01-09T11:24:25.843Z,4.47
2023-01-09T11:26:53.345Z,4.00
2023-01-09T11:29:20.905Z,6.77
2023-01-09T11:31:52.844Z,4.57
2023-01-09T11:34:22.636Z,5.50
2023-01-09T11:36:51.121Z,3.80
2023-01-09T11:39:23.261Z,2.70
2023-01-09T11:41:53.668Z,5.27
2023-01-09T11:44:21.078Z,3.70
2023-01-09T11:46:47.629Z,3.80
2023-01-09T11:49:23.241Z,4.00
2023-01-09T11:52:14.658Z,2.80
2023-01-09T11:54:47.016Z,4.27
2023-01-09T11:57:13.629Z,2.13
2023-01-09T11:59:40.173Z,5.33
2023-01-09T12:02:31.540Z,2.83
2023-01-09T12:05:06.893Z,5.03
2023-01-09T12:07:57.091Z,4.70
2023-01-09T12:10:40.791Z,5.07
2023-01-09T12:13:21.990Z,4.63
2023-01-09T12:15:58.813Z,3.23
2023-01-09T12:18:38.330Z,3.80
2023-01-09T12:21:22.680Z,5.10
2023-01-09T12:24:02.873Z,5.33
2023-01-09T12:26:32.379Z,5.97
2023-01-09T12:29:20.021Z,3.00
2023-01-09T12:32:03.197Z,4.53
2023-01-09T12:34:44.443Z,3.97
2023-01-09T12:37:34.876Z,5.00
2023-01-09T12:40:16.594Z,4.80
2023-01-09T12:42:47.459Z,5.73
2023-01-09T12:45:25.919Z,4.03
2023-01-09T12:47:54.382Z,7.20
2023-01-09T12:50:28.668Z,3.50
2023-01-09T12:53:09.062Z,4.53
2023-01-09T12:55:39.069Z,3.63
2023-01-09T12:58:09.022Z,3.77
2023-01-09T13:00:37.850Z,3.97
2023-01-09T13:03:12.381Z,4.07
2023-01-09T13:05:42.178Z,5.50
2023-01-09T13:08:14.936Z,4.23
2023-01-09T13:10:52.126Z,3.00
2023-01-09T13:13:20.464Z,6.43
2023-01-09T13:15:49.896Z,5.90
2023-01-09T13:18:19.046Z,3.87
2023-01-09T13:20:47.593Z,6.93
2023-01-09T13:23:21.641Z,3.33
2023-01-09T13:25:52.792Z,3.60
2023-01-09T13:28:21.882Z,4.90
2023-01-09T13:30:58.699Z,4.53
2023-01-09T13:33:28.476Z,5.27
2023-01-09T13:35:56.657Z,4.03
2023-01-09T13:38:25.107Z,5.23
2023-01-09T13:41:22.300Z,4.10
2023-01-09T13:43:53.073Z,5.87
2023-01-09T13:46:19.980Z,5.10
2023-01-09T13:49:02.809Z,8.83
2023-01-09T13:51:37.263Z,2.50
2023-01-09T13:54:04.916Z,4.57
2023-01-09T13:56:31.771Z,2.83
2023-01-09T13:59:00.189Z,4.27
2023-01-09T14:01:46.704Z,4.47
2023-01-09T14:04:32.230Z,4.97
2023-01-09T14:07:14.470Z,10.63
2023-01-09T14:09:46.455Z,5.67
2023-01-09T14:12:22.030Z,4.30
2023-01-09T14:14:49.653Z,5.90
2023-01-09T14:17:17.278Z,4.57
2023-01-09T14:19:44.283Z,5.47
2023-01-09T14:22:22.676Z,4.77
2023-01-09T14:24:52.139Z,6.93
2023-01-09T14:27:37.395Z,4.90
2023-01-09T14:30:17.133Z,6.53
2023-01-09T14:32:44.375Z,5.50
2023-01-09T14:35:15.332Z,3.30
2023-01-09T14:37:42.990Z,7.57
2023-01-09T14:40:16.337Z,7.50
2023-01-09T14:42:44.786Z,6.67
2023-01-09T14:45:15.263Z,4.77
2023-01-09T14:47:44.540Z,6.63
2023-01-09T14:50:16.140Z,4.60
2023-01-09T14:52:46.532Z,8.30
2023-01-09T14:55:18.950Z,4.03
2023-01-09T14:57:49.109Z,5.10
2023-01-09T15:00:17.024Z,6.20
2023-01-09T15:02:46.443Z,3.67
2023-01-09T15:05:15.077Z,4.77
2023-01-09T15:07:43.771Z,4.00
2023-01-09T15:10:15.393Z,5.40
2023-01-09T15:12:44.322Z,6.40
2023-01-09T15:15:13.517Z,3.93
2023-01-09T15:17:42.520Z,6.50
2023-01-09T15:20:17.874Z,7.10
2023-01-09T15:22:48.671Z,5.37
2023-01-09T15:25:33.635Z,8.87
2023-01-09T15:28:01.697Z,4.93
2023-01-09T15:30:33.628Z,6.57
2023-01-09T15:33:01.073Z,8.30
2023-01-09T15:35:28.385Z,6.57
2023-01-09T15:37:56.449Z,3.97
2023-01-09T15:40:25.843Z,5.47
2023-01-09T15:42:57.828Z,5.73
2023-01-09T15:45:26.373Z,7.27
2023-01-09T15:47:54.003Z,7.33
2023-01-09T15:50:24.012Z,5.30
2023-01-09T15:52:51.835Z,5.07
2023-01-09T15:55:28.118Z,5.67
2023-01-09T15:57:56.339Z,5.63
2023-01-09T16:00:41.310Z,8.23
2023-01-09T16:03:18.052Z,7.67
2023-01-09T16:05:47.678Z,9.07
2023-01-09T16:08:23.241Z,8.30
2023-01-09T16:10:52.159Z,6.27
2023-01-09T16:13:21.807Z,6.73
2023-01-09T16:15:48.964Z,5.77
2023-01-09T16:18:36.726Z,6.47
2023-01-09T16:21:19.726Z,6.27
2023-01-09T16:23:52.884Z,7.00
2023-01-09T16:26:24.453Z,6.60
2023-01-09T16:29:32.929Z,7.20
2023-01-09T16:32:00.250Z,6.07
2023-01-09T16:34:27.973Z,7.93
2023-01-09T16:36:54.710Z,7.17
2023-01-09T16:39:33.480Z,10.03
2023-01-09T16:42:18.634Z,6.07
2023-01-09T16:44:45.175Z,9.23
2023-01-09T16:47:11.934Z,8.43
2023-01-09T16:49:39.290Z,8.07
2023-01-09T16:52:15.127Z,8.63
2023-01-09T16:54:43.484Z,11.03
2023-01-09T16:57:15.160Z,5.97
2023-01-09T16:59:41.699Z,6.87
2023-01-09T17:02:16.951Z,6.53
2023-01-09T17:04:44.685Z,4.07
2023-01-09T17:07:13.366Z,5.13
2023-01-09T17:09:39.948Z,4.73
2023-01-09T17:12:10.675Z,6.27
2023-01-09T17:14:37.174Z,5.03
2023-01-09T17:17:08.101Z,4.40
2023-01-09T17:19:35.007Z,4.67
2023-01-09T17:22:02.134Z,5.63
2023-01-09T17:24:46.849Z,2.90
2023-01-09T17:27:31.699Z,5.17
2023-01-09T17:29:59.301Z,3.67
2023-01-09T17:32:25.929Z,5.97
2023-01-09T17:34:58.211Z,5.87
2023-01-09T17:37:25.370Z,2.40
2023-01-09T17:39:51.901Z,4.13
2023-01-09T17:42:18.458Z,5.07
2023-01-09T17:44:44.967Z,4.20
2023-01-09T17:47:14.482Z,5.60
2023-01-09T17:49:41.598Z,3.80
2023-01-09T17:52:08.134Z,3.43
2023-01-09T17:54:35.288Z,4.03
2023-01-09T17:57:02.212Z,5.50
2023-01-09T17:59:29.462Z,3.73
2023-01-09T18:01:56.576Z,4.00
2023-01-09T18:04:23.135Z,5.33
2023-01-09T18:06:49.721Z,5.90
2023-01-09T18:09:17.641Z,3.90
2023-01-09T18:11:44.818Z,4.83
2023-01-09T18:14:13.512Z,3.77
2023-01-09T18:16:40.613Z,5.90
2023-01-09T18:19:07.220Z,3.97
2023-01-09T18:21:33.756Z,3.67
2023-01-09T18:24:01.675Z,4.70
2023-01-09T18:26:28.251Z,3.23
2023-01-09T18:28:56.907Z,6.23
2023-01-09T18:31:27.601Z,6.97
2023-01-09T18:33:56.013Z,7.07
2023-01-09T18:36:28.441Z,5.37
2023-01-09T18:38:56.045Z,8.83
2023-01-09T18:41:23.006Z,8.20
2023-01-09T18:43:49.725Z,9.07
2023-01-09T18:46:19.826Z,9.40
2023-01-09T18:48:49.853Z,11.40
2023-01-09T18:51:16.380Z,11.47
2023-01-09T18:53:49.069Z,10.20
2023-01-09T18:56:15.697Z,13.83
2023-01-09T18:58:42.408Z,10.37
2023-01-09T19:01:08.984Z,10.90
2023-01-09T19:03:36.243Z,13.00
2023-01-09T19:06:06.041Z,11.30
2023-01-09T19:08:34.347Z,13.17
2023-01-09T19:11:01.489Z,11.30
2023-01-09T19:13:30.344Z,12.80
2023-01-09T19:15:57.511Z,10.27
2023-01-09T19:18:24.625Z,8.63
2023-01-09T19:20:52.370Z,10.50
2023-01-09T19:23:19.768Z,9.73
2023-01-09T19:25:46.626Z,9.20
2023-01-09T19:28:13.620Z,11.90
2023-01-09T19:30:40.281Z,9.83
2023-01-09T19:33:07.083Z,8.20
2023-01-09T19:35:34.022Z,9.60
2023-01-09T19:38:01.209Z,12.53
2023-01-09T19:40:27.765Z,8.53
2023-01-09T19:42:55.553Z,8.83
2023-01-09T19:45:22.601Z,10.37
2023-01-09T19:47:49.557Z,7.73
2023-01-09T19:50:17.140Z,8.50
2023-01-09T19:52:44.173Z,8.67
2023-01-09T19:55:13.088Z,10.50
2023-01-09T19:57:39.985Z,8.10
2023-01-09T20:00:08.153Z,11.17
2023-01-09T20:02:39.746Z,6.47
2023-01-09T20:05:07.222Z,8.17
2023-01-09T20:07:34.295Z,9.10
2023-01-09T20:10:01.339Z,9.77
2023-01-09T20:12:28.499Z,10.00
2023-01-09T20:14:55.042Z,7.57
2023-01-09T20:17:21.634Z,9.23
2023-01-09T20:19:48.177Z,8.40
2023-01-09T20:22:14.701Z,8.73
2023-01-09T20:24:41.231Z,9.23
2023-01-09T20:27:07.746Z,9.33
2023-01-09T20:29:34.876Z,8.97
2023-01-09T20:32:04.703Z,12.70
2023-01-09T20:34:31.233Z,9.57
2023-01-09T20:36:57.824Z,9.73
2023-01-09T20:39:24.325Z,6.70
2023-01-09T20:41:50.856Z,8.03
2023-01-09T20:44:17.368Z,10.03
2023-01-09T20:46:47.063Z,9.00
2023-01-09T20:49:17.199Z,9.13
2023-01-09T20:51:45.976Z,8.53
2023-01-09T20:54:12.960Z,7.70
2023-01-09T20:56:45.249Z,7.67
2023-01-09T20:59:13.705Z,7.73
2023-01-09T21:01:40.694Z,8.67
2023-01-09T21:04:08.360Z,7.97
2023-01-09T21:06:36.020Z,6.70
2023-01-09T21:09:02.794Z,7.13
2023-01-09T21:11:29.275Z,8.70
2023-01-09T21:13:56.551Z,10.17
2023-01-09T21:16:23.871Z,8.93
2023-01-09T21:18:51.567Z,14.07
2023-01-09T21:21:21.009Z,9.07
2023-01-09T21:23:50.988Z,8.33
2023-01-09T21:26:21.419Z,11.07
2023-01-09T21:28:49.257Z,11.83
2023-01-09T21:31:19.491Z,7.90
2023-01-09T21:33:47.179Z,9.03
2023-01-09T21:36:15.054Z,5.97
2023-01-09T21:38:42.304Z,7.63
2023-01-09T21:41:27.678Z,6.77
2023-01-09T21:44:12.662Z,6.13
2023-01-09T21:46:51.370Z,6.20
2023-01-09T21:49:18.658Z,5.77
2023-01-09T21:51:45.712Z,4.37
2023-01-09T21:54:13.007Z,5.73
2023-01-09T21:56:39.677Z,7.83
2023-01-09T21:59:06.645Z,6.63
2023-01-09T22:01:33.234Z,7.50
2023-01-09T22:03:59.895Z,6.70
2023-01-09T22:06:27.592Z,7.03
2023-01-09T22:08:55.018Z,7.07
2023-01-09T22:11:22.271Z,6.13
2023-01-09T22:13:49.731Z,6.10
2023-01-09T22:16:17.113Z,8.67
2023-01-09T22:18:43.708Z,5.10
2023-01-09T22:21:10.331Z,10.03
2023-01-09T22:23:36.945Z,9.97
2023-01-09T22:26:08.050Z,8.53
2023-01-09T22:28:35.198Z,7.83
2023-01-09T22:31:01.817Z,7.73
2023-01-09T22:33:28.388Z,6.67
2023-01-09T22:36:05.315Z,9.47
2023-01-09T22:38:31.806Z,11.27
2023-01-09T22:40:58.373Z,8.00
2023-01-09T22:43:24.925Z,10.87
2023-01-09T22:45:52.113Z,9.20
2023-01-09T22:48:18.774Z,10.70
2023-01-09T22:50:45.271Z,13.27
2023-01-09T22:53:11.793Z,7.03
2023-01-09T22:55:38.313Z,7.33
2023-01-09T22:58:04.809Z,11.87
2023-01-09T23:00:31.758Z,9.80
2023-01-09T23:02:58.932Z,7.87
2023-01-09T23:05:25.504Z,11.17
2023-01-09T23:07:52.051Z,12.90
2023-01-09T23:10:18.787Z,10.17
2023-01-09T23:12:47.573Z,10.30
2023-01-09T23:15:14.213Z,8.97
2023-01-09T23:17:40.743Z,11.27
2023-01-09T23:20:09.695Z,12.10
2023-01-09T23:22:36.197Z,10.23
2023-01-09T23:25:02.796Z,11.80
2023-01-09T23:27:29.343Z,9.10
2023-01-09T23:29:55.826Z,9.20
2023-01-09T23:32:22.330Z,12.27
2023-01-09T23:34:49.043Z,9.13
2023-01-09T23:37:16.230Z,9.50
2023-01-09T23:39:42.726Z,9.27
2023-01-09T23:42:29.042Z,8.53
2023-01-09T23:44:55.581Z,8.83
2023-01-09T23:47:22.137Z,10.13
2023-01-09T23:49:48.644Z,14.87
2023-01-09T23:52:15.790Z,10.87
2023-01-09T23:54:42.323Z,8.93
2023-01-09T23:57:08.896Z,10.20
2023-01-09T23:59:35.423Z,11.60
